createdAt,value
2023-01-27T09:46:17.002Z,2.37
2023-01-27T09:49:50.896Z,2.66
2023-01-27T09:53:12.514Z,2.98
2023-01-27T09:56:39.445Z,3.20
2023-01-27T09:59:57.118Z,3.25
2023-01-27T10:03:05.921Z,3.31
2023-01-27T10:06:19.988Z,3.45
2023-01-27T10:09:39.087Z,3.41
2023-01-27T10:13:12.955Z,3.35
2023-01-27T10:16:21.739Z,3.51
2023-01-27T10:20:06.050Z,3.65
2023-01-27T10:23:30.882Z,3.65
2023-01-27T10:26:54.957Z,3.31
2023-01-27T10:29:38.080Z,3.38
2023-01-27T10:32:37.689Z,3.57
2023-01-27T10:35:20.951Z,3.51
2023-01-27T10:38:42.600Z,3.58
2023-01-27T10:41:41.727Z,3.76
2023-01-27T10:44:46.581Z,3.83
2023-01-27T10:48:14.908Z,4.07
2023-01-27T10:51:17.850Z,3.91
2023-01-27T10:54:07.575Z,3.89
2023-01-27T10:57:04.463Z,3.63
2023-01-27T11:00:21.870Z,3.71
2023-01-27T11:03:09.863Z,3.77
2023-01-27T11:05:58.065Z,4.03
2023-01-27T11:08:44.961Z,3.77
2023-01-27T11:11:33.463Z,4.04
2023-01-27T11:14:39.346Z,3.72
2023-01-27T11:17:42.512Z,3.80
2023-01-27T11:20:35.444Z,3.66
2023-01-27T11:23:45.655Z,3.81
2023-01-27T11:26:43.540Z,3.88
2023-01-27T11:29:49.911Z,3.74
2023-01-27T11:32:51.260Z,4.03
2023-01-27T11:35:18.686Z,3.89
2023-01-27T11:37:51.265Z,3.75
2023-01-27T11:40:33.634Z,4.15
2023-01-27T11:43:02.217Z,3.94
2023-01-27T11:45:36.624Z,4.05
2023-01-27T11:48:12.537Z,4.18
2023-01-27T11:50:43.978Z,4.31
2023-01-27T11:53:29.801Z,4.21
2023-01-27T11:56:07.622Z,4.25
2023-01-27T11:59:18.331Z,4.23
2023-01-27T12:02:24.126Z,4.24
2023-01-27T12:05:14.579Z,4.15
2023-01-27T12:08:04.691Z,4.19
2023-01-27T12:10:44.266Z,4.12
2023-01-27T12:13:21.143Z,4.13
2023-01-27T12:16:00.591Z,4.15
2023-01-27T12:18:32.277Z,4.22
2023-01-27T12:21:06.591Z,4.00
2023-01-27T12:23:46.858Z,4.19
2023-01-27T12:26:14.512Z,4.25
2023-01-27T12:28:54.548Z,4.20
2023-01-27T12:31:42.200Z,3.93
2023-01-27T12:34:36.650Z,3.98
2023-01-27T12:37:07.859Z,4.29
2023-01-27T12:40:00.483Z,4.15
2023-01-27T12:42:44.286Z,4.29
2023-01-27T12:45:35.520Z,4.21
2023-01-27T12:48:20.766Z,4.19
2023-01-27T12:50:51.013Z,4.17
2023-01-27T12:53:27.728Z,4.02
2023-01-27T12:56:20.916Z,4.08
2023-01-27T12:58:59.728Z,4.38
2023-01-27T13:01:38.416Z,4.19
2023-01-27T13:04:25.215Z,4.26
2023-01-27T13:07:03.014Z,4.11
2023-01-27T13:10:03.511Z,4.34
2023-01-27T13:13:00.749Z,4.47
2023-01-27T13:15:31.582Z,4.55
2023-01-27T13:18:12.075Z,4.11
2023-01-27T13:20:49.566Z,4.43
2023-01-27T13:23:34.819Z,4.51
2023-01-27T13:26:05.015Z,4.37
2023-01-27T13:28:55.885Z,4.51
2023-01-27T13:32:16.078Z,4.39
2023-01-27T13:35:25.955Z,4.27
2023-01-27T13:38:44.216Z,4.39
2023-01-27T13:41:27.163Z,4.33
2023-01-27T13:44:42.451Z,4.33
2023-01-27T13:47:27.998Z,4.37
2023-01-27T13:50:16.962Z,4.24
2023-01-27T13:52:50.159Z,4.33
2023-01-27T13:56:19.171Z,4.29
2023-01-27T13:59:40.930Z,4.44
2023-01-27T14:03:05.124Z,4.50
2023-01-27T14:06:24.560Z,4.63
2023-01-27T14:10:08.687Z,4.48
2023-01-27T14:13:23.872Z,4.72
2023-01-27T14:16:25.949Z,4.60
2023-01-27T14:19:41.394Z,4.67
2023-01-27T14:23:19.969Z,4.80
2023-01-27T14:27:09.856Z,4.58
2023-01-27T14:30:13.482Z,4.61
2023-01-27T14:32:55.377Z,4.50
2023-01-27T14:36:11.516Z,4.73
2023-01-27T14:39:14.346Z,4.81
2023-01-27T14:45:28.817Z,4.67
2023-01-27T14:48:36.760Z,4.58
2023-01-27T14:51:43.826Z,4.69
2023-01-27T14:55:31.907Z,4.82
2023-01-27T14:58:44.662Z,4.66
2023-01-27T15:01:32.141Z,4.66
2023-01-27T15:05:02.971Z,4.74
2023-01-27T15:08:18.605Z,4.73
2023-01-27T15:11:31.696Z,4.51
2023-01-27T15:14:45.252Z,4.70
2023-01-27T15:17:46.610Z,4.61
2023-01-27T15:20:52.006Z,4.52
2023-01-27T15:24:18.556Z,4.65
2023-01-27T15:26:47.965Z,4.67
2023-01-27T15:29:17.336Z,4.59
2023-01-27T15:32:28.463Z,4.51
2023-01-27T15:35:37.916Z,4.57
2023-01-27T15:38:35.139Z,4.52
2023-01-27T15:41:12.147Z,4.56
2023-01-27T15:44:02.240Z,4.55
2023-01-27T15:46:37.316Z,4.27
2023-01-27T15:49:12.853Z,4.51
2023-01-27T15:51:40.365Z,4.49
2023-01-27T15:54:27.450Z,4.51
2023-01-27T15:56:58.172Z,4.47
2023-01-27T15:59:58.736Z,4.68
2023-01-27T16:02:32.378Z,4.43
2023-01-27T16:05:36.564Z,4.53
2023-01-27T16:08:13.825Z,4.34
2023-01-27T16:10:42.232Z,4.33
2023-01-27T16:13:29.793Z,4.56
2023-01-27T16:16:18.870Z,4.38
2023-01-27T16:19:29.240Z,4.36
2023-01-27T16:22:14.933Z,4.26
2023-01-27T16:25:27.014Z,4.51
2023-01-27T16:28:12.966Z,4.46
2023-01-27T16:30:56.773Z,4.43
2023-01-27T16:33:51.708Z,4.49
2023-01-27T16:36:36.157Z,4.56
2023-01-27T16:39:43.619Z,4.57
2023-01-27T16:42:16.905Z,4.58
2023-01-27T16:44:51.128Z,4.29
2023-01-27T16:47:45.522Z,4.32
2023-01-27T16:50:42.600Z,4.55
2023-01-27T16:53:25.345Z,4.51
2023-01-27T16:56:15.271Z,4.35
2023-01-27T16:58:46.725Z,4.36
2023-01-27T17:01:39.723Z,4.51
2023-01-27T17:04:19.869Z,4.42
2023-01-27T17:06:51.800Z,4.60
2023-01-27T17:09:35.091Z,4.50
2023-01-27T17:12:02.641Z,4.57
2023-01-27T17:14:45.988Z,4.48
2023-01-27T17:17:21.099Z,4.40
2023-01-27T17:19:52.806Z,4.40
2023-01-27T17:22:38.021Z,4.51
2023-01-27T17:25:37.608Z,4.43
2023-01-27T17:28:22.114Z,4.43
2023-01-27T17:30:50.670Z,4.51
2023-01-27T17:33:21.465Z,4.33
2023-01-27T17:36:10.060Z,4.46
2023-01-27T17:38:51.823Z,4.47
2023-01-27T17:41:37.937Z,4.47
2023-01-27T17:44:14.721Z,4.61
2023-01-27T17:46:42.391Z,4.55
2023-01-27T17:49:18.793Z,4.42
2023-01-27T17:51:55.755Z,4.47
2023-01-27T17:54:39.272Z,4.54
2023-01-27T17:57:32.670Z,4.42
